createdAt,value
2022-11-18T00:01:33.947Z,98552.16
2022-11-18T00:04:03.449Z,98548.41
2022-11-18T00:06:33.157Z,98546.72
2022-11-18T00:09:03.476Z,98562.16
2022-11-18T00:11:51.419Z,98563.75
2022-11-18T00:14:23.488Z,98555.84
2022-11-18T00:16:57.285Z,98541.97
2022-11-18T00:19:26.926Z,98551.81
2022-11-18T00:21:54.830Z,98522.09
2022-11-18T00:24:23.578Z,98545.19
2022-11-18T00:26:53.042Z,98546.31
2022-11-18T00:29:21.353Z,98540.06
2022-11-18T00:31:49.823Z,98544.44
2022-11-18T00:34:19.594Z,98556.13
2022-11-18T00:36:48.881Z,98555.91
2022-11-18T00:39:18.796Z,98561.28
2022-11-18T00:42:05.313Z,98563.44
2022-11-18T00:44:34.908Z,98554.88
2022-11-18T00:47:02.708Z,98559.50
2022-11-18T00:49:33.087Z,98561.09
2022-11-18T00:52:01.157Z,98541.84
2022-11-18T00:54:28.931Z,98552.44
2022-11-18T00:56:56.721Z,98535.03
2022-11-18T00:59:24.462Z,98543.13
2022-11-18T01:01:53.692Z,98552.50
2022-11-18T01:04:21.644Z,98551.41
2022-11-18T01:06:49.540Z,98551.94
2022-11-18T01:09:17.638Z,98551.44
2022-11-18T01:12:03.201Z,98558.75
2022-11-18T01:14:31.126Z,98561.53
2022-11-18T01:17:00.344Z,98559.63
2022-11-18T01:19:28.300Z,98569.44
2022-11-18T01:21:56.855Z,98568.84
2022-11-18T01:24:24.666Z,98571.91
2022-11-18T01:26:52.406Z,98578.06
2022-11-18T01:29:20.383Z,98587.59
2022-11-18T01:32:09.244Z,98569.91
2022-11-18T01:34:37.559Z,98583.34
2022-11-18T01:37:05.321Z,98577.69
2022-11-18T01:39:33.250Z,98582.09
2022-11-18T01:42:01.135Z,98590.19
2022-11-18T01:44:57.968Z,98591.03
2022-11-18T01:47:29.187Z,98584.53
2022-11-18T01:50:00.307Z,98585.50
2022-11-18T01:52:28.933Z,98589.53
2022-11-18T01:55:00.438Z,98600.03
2022-11-18T01:57:30.725Z,98587.91
2022-11-18T02:00:00.477Z,98583.28
2022-11-18T02:02:28.660Z,98594.66
2022-11-18T02:04:59.848Z,98579.69
2022-11-18T02:07:28.195Z,98596.25
2022-11-18T02:09:58.989Z,98596.56
2022-11-18T02:12:26.810Z,98596.31
2022-11-18T02:14:54.751Z,98596.03
2022-11-18T02:17:34.803Z,98588.44
2022-11-18T02:20:32.896Z,98595.28
2022-11-18T02:23:28.885Z,98598.75
2022-11-18T02:26:12.384Z,98599.63
2022-11-18T02:28:53.784Z,98594.03
2022-11-18T02:31:28.898Z,98596.38
2022-11-18T02:34:04.240Z,98598.63
2022-11-18T02:36:41.648Z,98602.56
2022-11-18T02:39:13.463Z,98592.56
2022-11-18T02:41:45.756Z,98601.53
2022-11-18T02:44:16.535Z,98593.44
2022-11-18T02:46:48.806Z,98589.28
2022-11-18T02:49:21.346Z,98604.81
2022-11-18T02:51:51.478Z,98603.69
2022-11-18T02:54:21.995Z,98603.28
2022-11-18T02:56:52.583Z,98594.91
2022-11-18T02:59:22.459Z,98586.75
2022-11-18T03:01:50.352Z,98609.06
2022-11-18T03:04:19.201Z,98595.53
2022-11-18T03:06:55.069Z,98611.69
2022-11-18T03:09:28.204Z,98600.16
2022-11-18T03:12:03.571Z,98608.94
2022-11-18T03:14:41.425Z,98601.94
2022-11-18T03:17:12.975Z,98607.22
2022-11-18T03:19:56.111Z,98614.81
2022-11-18T03:22:29.612Z,98622.38
2022-11-18T03:25:05.838Z,98627.44
2022-11-18T03:27:38.032Z,98623.66
2022-11-18T03:30:13.341Z,98621.09
2022-11-18T03:32:45.460Z,98621.56
2022-11-18T03:35:18.788Z,98630.84
2022-11-18T03:37:50.458Z,98623.41
2022-11-18T03:40:21.544Z,98641.97
2022-11-18T03:42:53.014Z,98640.28
2022-11-18T03:45:25.256Z,98648.22
2022-11-18T03:47:56.765Z,98635.00
2022-11-18T03:50:28.696Z,98646.53
2022-11-18T03:52:57.680Z,98652.78
2022-11-18T03:55:30.545Z,98641.09
2022-11-18T03:58:06.544Z,98646.84
2022-11-18T04:00:40.532Z,98637.47
2022-11-18T04:03:08.379Z,98664.53
2022-11-18T04:05:39.255Z,98653.75
2022-11-18T04:08:11.959Z,98653.97
2022-11-18T04:10:44.002Z,98669.69
2022-11-18T04:13:17.268Z,98663.19
2022-11-18T04:15:46.471Z,98670.69
2022-11-18T04:18:14.404Z,98652.59
2022-11-18T04:20:42.228Z,98663.25
2022-11-18T04:23:10.134Z,98671.41
2022-11-18T04:25:38.152Z,98663.44
2022-11-18T04:28:06.927Z,98672.72
2022-11-18T04:30:35.205Z,98667.22
2022-11-18T04:33:05.216Z,98678.75
2022-11-18T04:35:33.340Z,98672.03
2022-11-18T04:38:01.199Z,98670.06
2022-11-18T04:40:29.147Z,98646.06
2022-11-18T04:42:56.931Z,98681.50
2022-11-18T04:45:24.724Z,98678.16
2022-11-18T04:47:52.529Z,98678.13
2022-11-18T04:50:21.928Z,98691.38
2022-11-18T04:52:49.765Z,98678.63
2022-11-18T04:55:17.760Z,98684.31
2022-11-18T04:57:45.588Z,98670.25
2022-11-18T05:00:13.917Z,98691.22
2022-11-18T05:02:41.787Z,98691.38
2022-11-18T05:05:09.688Z,98688.69
2022-11-18T05:07:38.916Z,98700.66
2022-11-18T05:10:07.456Z,98696.31
2022-11-18T05:12:49.312Z,98690.47
2022-11-18T05:15:17.678Z,98700.41
2022-11-18T05:17:45.518Z,98687.66
2022-11-18T05:20:14.094Z,98703.19
2022-11-18T05:22:43.545Z,98699.13
2022-11-18T05:25:11.387Z,98702.16
2022-11-18T05:27:39.201Z,98708.66
2022-11-18T05:30:07.904Z,98714.91
2022-11-18T05:32:35.664Z,98718.44
2022-11-18T05:35:03.522Z,98721.56
2022-11-18T05:37:33.667Z,98727.41
2022-11-18T05:40:02.904Z,98727.50
2022-11-18T05:42:48.507Z,98718.91
2022-11-18T05:45:19.328Z,98723.75
2022-11-18T05:48:04.398Z,98735.50
2022-11-18T05:50:33.591Z,98728.53
2022-11-18T05:53:01.712Z,98729.66
2022-11-18T05:55:36.477Z,98729.72
2022-11-18T05:58:04.304Z,98738.66
2022-11-18T06:00:33.515Z,98742.97
2022-11-18T06:03:01.878Z,98741.75
2022-11-18T06:05:32.647Z,98751.06
2022-11-18T06:08:00.502Z,98750.81
2022-11-18T06:10:33.377Z,98758.75
2022-11-18T06:13:04.150Z,98752.84
2022-11-18T06:15:36.438Z,98758.28
2022-11-18T06:18:07.627Z,98747.81
2022-11-18T06:20:38.074Z,98766.22
2022-11-18T06:23:06.079Z,98768.44
2022-11-18T06:25:38.004Z,98773.81
2022-11-18T06:28:06.164Z,98785.69
2022-11-18T06:30:33.932Z,98789.47
2022-11-18T06:33:02.119Z,98795.25
2022-11-18T06:35:29.937Z,98799.94
2022-11-18T06:37:57.808Z,98796.06
2022-11-18T06:40:27.366Z,98813.13
2022-11-18T06:43:17.196Z,98811.47
2022-11-18T06:46:09.060Z,98813.56
2022-11-18T06:48:37.781Z,98822.72
2022-11-18T06:51:06.096Z,98826.38
2022-11-18T06:53:37.546Z,98825.41
2022-11-18T06:56:05.978Z,98838.78
2022-11-18T06:58:36.755Z,98838.13
2022-11-18T07:01:13.615Z,98847.16
2022-11-18T07:03:42.350Z,98851.13
2022-11-18T07:06:11.736Z,98850.44
2022-11-18T07:11:38.337Z,98861.41
2022-11-18T07:14:08.189Z,98824.22
2022-11-18T07:16:37.656Z,98834.59
2022-11-18T07:19:10.717Z,98842.22
2022-11-18T07:21:39.529Z,98865.31
2022-11-18T07:24:09.251Z,98859.72
2022-11-18T07:26:39.682Z,98831.19
2022-11-18T07:29:09.977Z,98875.50
2022-11-18T07:31:39.762Z,98856.34
2022-11-18T07:34:08.600Z,98886.06
2022-11-18T07:36:36.851Z,98869.47
2022-11-18T07:39:09.160Z,98872.75
2022-11-18T07:41:37.539Z,98881.75
2022-11-18T07:44:07.511Z,98882.56
2022-11-18T07:46:38.643Z,98866.13
2022-11-18T07:49:09.971Z,98902.56
2022-11-18T07:51:40.562Z,98881.63
2022-11-18T07:54:10.447Z,98884.41
2022-11-18T07:56:41.783Z,98870.00
2022-11-18T07:59:13.096Z,98916.03
2022-11-18T08:01:42.937Z,98900.38
2022-11-18T08:04:14.005Z,98871.31
2022-11-18T08:06:42.720Z,98886.34
2022-11-18T08:09:11.135Z,98917.13
2022-11-18T08:11:40.984Z,98928.78
2022-11-18T08:14:10.039Z,98919.81
2022-11-18T08:16:38.805Z,98938.72
2022-11-18T08:19:08.289Z,98921.03
2022-11-18T08:21:36.544Z,98924.78
2022-11-18T08:24:04.693Z,98941.22
2022-11-18T08:26:33.365Z,98943.56
2022-11-18T08:29:01.861Z,98893.25
2022-11-18T08:31:31.590Z,98905.47
2022-11-18T08:34:00.916Z,98946.38
2022-11-18T08:36:31.419Z,98957.66
2022-11-18T08:39:00.402Z,98945.03
2022-11-18T08:41:32.358Z,98952.16
2022-11-18T08:44:00.783Z,98952.06
2022-11-18T08:46:28.689Z,98950.16
2022-11-18T08:48:56.790Z,98951.25
2022-11-18T08:51:25.269Z,98955.66
2022-11-18T08:53:54.564Z,98952.41
2022-11-18T08:56:24.086Z,98963.63
2022-11-18T08:58:52.452Z,98963.88
2022-11-18T09:01:20.472Z,98967.13
2022-11-18T09:03:48.957Z,98977.84
2022-11-18T09:06:19.482Z,98966.13
2022-11-18T09:08:47.940Z,98976.25
2022-11-18T09:11:19.305Z,98979.69
2022-11-18T09:14:26.051Z,98988.53
2022-11-18T09:16:36.281Z,98982.81
2022-11-18T09:19:24.747Z,98984.78
2022-11-18T09:21:52.842Z,98996.16
2022-11-18T09:24:21.324Z,98985.94
2022-11-18T09:26:50.966Z,98999.63
2022-11-18T09:29:18.878Z,99001.16
2022-11-18T09:31:46.985Z,99008.84
2022-11-18T09:34:14.810Z,99013.63
2022-11-18T09:36:42.806Z,99009.56
2022-11-18T09:39:10.749Z,99005.44
2022-11-18T09:41:46.233Z,99013.44
2022-11-18T09:44:39.758Z,99018.81
2022-11-18T09:47:22.625Z,99019.06
2022-11-18T09:49:53.646Z,99022.88
2022-11-18T09:52:30.164Z,99030.63
2022-11-18T09:55:01.387Z,99032.25
2022-11-18T09:57:39.719Z,99022.78
2022-11-18T10:00:16.527Z,99022.66
2022-11-18T10:02:57.072Z,99016.03
2022-11-18T10:05:27.448Z,99018.81
2022-11-18T10:08:15.503Z,99019.31
2022-11-18T10:10:56.648Z,99025.94
2022-11-18T10:13:39.825Z,99026.34
2022-11-18T10:16:23.936Z,99031.59
2022-11-18T10:19:00.940Z,99042.91
2022-11-18T10:21:43.440Z,99032.72
2022-11-18T10:24:16.966Z,99035.00
2022-11-18T10:26:45.266Z,99028.84
2022-11-18T10:29:13.512Z,99022.53
2022-11-18T10:32:03.789Z,99043.81
2022-11-18T10:34:33.178Z,99037.28
2022-11-18T10:37:03.445Z,99029.25
2022-11-18T10:39:31.612Z,99047.56
2022-11-18T10:42:03.977Z,99046.75
2022-11-18T10:44:34.768Z,99048.03
2022-11-18T10:47:34.713Z,99051.66
2022-11-18T10:50:24.169Z,99061.03
2022-11-18T10:52:54.288Z,99043.50
2022-11-18T10:55:24.886Z,99046.69
2022-11-18T10:57:57.087Z,99055.69
2022-11-18T11:00:50.357Z,99055.34
2022-11-18T11:03:41.943Z,99051.69
2022-11-18T11:06:43.178Z,99059.00
2022-11-18T11:09:24.400Z,99055.50
2022-11-18T11:11:58.975Z,99050.13
2022-11-18T11:14:29.905Z,99046.47
2022-11-18T11:17:03.583Z,99055.75
2022-11-18T11:19:40.791Z,99046.50
2022-11-18T11:22:13.388Z,99051.06
2022-11-18T11:24:41.938Z,99053.25
2022-11-18T11:30:22.007Z,99067.47
2022-11-18T11:33:23.845Z,99063.53
2022-11-18T11:36:04.871Z,99062.59
2022-11-18T11:38:43.429Z,99037.06
2022-11-18T11:41:21.236Z,99057.25
2022-11-18T11:44:07.685Z,99075.00
2022-11-18T11:46:44.096Z,99064.50
2022-11-18T11:49:19.070Z,99075.56
2022-11-18T11:51:55.120Z,99076.91
2022-11-18T11:54:39.144Z,99072.13
2022-11-18T11:57:16.867Z,99071.66
2022-11-18T11:59:54.319Z,99067.72
2022-11-18T12:02:48.883Z,99084.66
2022-11-18T12:05:23.531Z,99080.34
2022-11-18T12:07:56.642Z,99081.63
2022-11-18T12:10:36.924Z,99080.13
2022-11-18T12:13:21.676Z,99078.69
2022-11-18T12:16:00.097Z,99077.03
2022-11-18T12:18:34.764Z,99073.13
2022-11-18T12:21:02.592Z,99081.09
2022-11-18T12:23:35.275Z,99075.38
2022-11-18T12:26:06.073Z,99082.88
2022-11-18T12:28:39.921Z,99080.97
2022-11-18T12:31:36.256Z,99082.69
2022-11-18T12:34:20.955Z,99078.75
2022-11-18T12:36:48.894Z,99072.22
2022-11-18T12:39:53.408Z,99076.50
2022-11-18T12:43:00.984Z,99089.28
2022-11-18T12:46:01.736Z,99088.63
2022-11-18T12:48:35.847Z,99078.91
2022-11-18T12:51:30.124Z,99068.94
2022-11-18T12:53:58.612Z,99075.78
2022-11-18T12:56:28.980Z,99079.63
2022-11-18T12:59:00.265Z,99090.34
2022-11-18T13:01:30.545Z,99082.41
2022-11-18T13:04:08.493Z,99078.38
2022-11-18T13:06:38.998Z,99084.56
2022-11-18T13:09:15.404Z,99086.88
2022-11-18T13:11:48.479Z,99087.50
2022-11-18T13:14:41.140Z,99086.97
2022-11-18T13:17:45.552Z,99087.69
2022-11-18T13:20:27.341Z,99074.81
2022-11-18T13:23:15.105Z,99084.47
2022-11-18T13:25:45.126Z,99085.84
2022-11-18T13:28:24.081Z,99090.19
2022-11-18T13:30:58.068Z,99088.69
2022-11-18T13:33:26.699Z,99099.78
2022-11-18T13:35:54.585Z,99096.75
2022-11-18T13:38:28.463Z,99098.97
2022-11-18T13:41:08.102Z,99101.16
2022-11-18T13:43:36.239Z,99101.53
2022-11-18T13:46:10.484Z,99101.88
2022-11-18T13:48:46.335Z,99105.63
2022-11-18T13:51:14.804Z,99096.53
2022-11-18T13:53:44.480Z,99100.75
2022-11-18T13:56:20.265Z,99104.00
2022-11-18T13:59:16.473Z,99108.78
2022-11-18T14:01:47.062Z,99114.25
2022-11-18T14:04:21.685Z,99111.75
2022-11-18T14:06:49.998Z,99103.38
2022-11-18T14:09:25.582Z,99112.31
2022-11-18T14:12:01.797Z,99109.06
2022-11-18T14:14:32.022Z,99109.09
2022-11-18T14:17:17.518Z,99110.44
2022-11-18T14:19:46.077Z,99103.88
2022-11-18T14:22:17.139Z,99104.41
2022-11-18T14:24:45.461Z,99123.31
2022-11-18T14:27:48.341Z,99120.22
2022-11-18T14:30:36.889Z,99121.97
2022-11-18T14:33:22.458Z,99129.91
2022-11-18T14:35:53.521Z,99121.22
2022-11-18T14:41:16.090Z,99132.38
2022-11-18T14:43:46.048Z,99120.84
2022-11-18T14:46:19.114Z,99125.28
2022-11-18T14:48:48.922Z,99132.09
2022-11-18T14:51:18.167Z,99134.28
2022-11-18T14:54:01.901Z,99134.97
2022-11-18T14:56:36.376Z,99141.00
2022-11-18T14:59:04.907Z,99153.34
2022-11-18T15:01:33.048Z,99161.03
2022-11-18T15:04:02.515Z,99158.41
2022-11-18T15:06:30.349Z,99162.78
2022-11-18T15:08:58.157Z,99166.13
2022-11-18T15:11:25.987Z,99169.03
2022-11-18T15:13:54.177Z,99162.72
2022-11-18T15:16:24.377Z,99164.88
2022-11-18T15:18:54.057Z,99169.00
2022-11-18T15:21:24.503Z,99174.59
2022-11-18T15:23:52.930Z,99174.50
2022-11-18T15:26:22.843Z,99172.44
2022-11-18T15:28:54.982Z,99179.56
2022-11-18T15:31:23.770Z,99179.09
2022-11-18T15:33:51.800Z,99180.59
2022-11-18T15:36:21.575Z,99184.75
2022-11-18T15:38:52.245Z,99181.75
2022-11-18T15:41:23.476Z,99184.97
2022-11-18T15:43:52.033Z,99198.97
2022-11-18T15:46:22.521Z,99196.53
2022-11-18T15:48:53.730Z,99191.44
2022-11-18T15:51:23.715Z,99195.97
2022-11-18T15:53:54.381Z,99194.06
2022-11-18T15:56:31.253Z,99194.63
2022-11-18T15:59:01.221Z,99204.25
2022-11-18T16:01:31.789Z,99207.59
2022-11-18T16:04:00.484Z,99206.84
2022-11-18T16:06:28.884Z,99209.13
2022-11-18T16:09:00.447Z,99220.47
2022-11-18T16:11:47.561Z,99219.41
2022-11-18T16:14:18.035Z,99219.34
2022-11-18T16:16:48.048Z,99220.47
2022-11-18T16:19:18.779Z,99215.16
2022-11-18T16:21:48.860Z,99224.81
2022-11-18T16:24:23.139Z,99218.56
2022-11-18T16:26:52.619Z,99208.91
2022-11-18T16:29:21.966Z,99230.34
2022-11-18T16:31:52.896Z,99226.97
2022-11-18T16:34:23.113Z,99229.31
2022-11-18T16:36:53.320Z,99232.53
2022-11-18T16:39:25.147Z,99228.63
2022-11-18T16:41:55.108Z,99235.09
2022-11-18T16:44:23.504Z,99237.22
2022-11-18T16:46:53.264Z,99249.25
2022-11-18T16:49:26.942Z,99252.63
2022-11-18T16:51:56.992Z,99249.09
2022-11-18T16:54:29.350Z,99251.03
2022-11-18T16:56:59.272Z,99262.56
2022-11-18T16:59:29.121Z,99259.16
2022-11-18T17:01:59.088Z,99251.38
2022-11-18T17:04:28.976Z,99266.44
2022-11-18T17:07:00.979Z,99269.06
2022-11-18T17:09:32.002Z,99271.16
2022-11-18T17:12:04.151Z,99269.75
2022-11-18T17:14:32.403Z,99276.44
2022-11-18T17:17:00.447Z,99287.06
2022-11-18T17:19:28.443Z,99282.69
2022-11-18T17:21:56.735Z,99280.69
2022-11-18T17:24:25.198Z,99289.50
2022-11-18T17:26:55.458Z,99282.53
2022-11-18T17:29:23.513Z,99284.16
2022-11-18T17:31:51.510Z,99284.56
2022-11-18T17:34:19.987Z,99277.69
2022-11-18T17:36:48.202Z,99274.53
2022-11-18T17:39:17.484Z,99279.44
2022-11-18T17:41:59.651Z,99281.56
2022-11-18T17:44:29.747Z,99277.50
2022-11-18T17:46:57.879Z,99281.28
2022-11-18T17:49:25.881Z,99268.47
2022-11-18T17:51:55.286Z,99277.06
2022-11-18T17:54:23.569Z,99282.72
2022-11-18T17:56:52.926Z,99271.00
2022-11-18T17:59:23.018Z,99273.03
2022-11-18T18:01:58.663Z,99289.66
2022-11-18T18:04:27.731Z,99290.38
2022-11-18T18:06:55.868Z,99290.38
2022-11-18T18:09:29.984Z,99285.25
2022-11-18T18:12:00.003Z,99293.00
2022-11-18T18:14:27.002Z,99301.81
2022-11-18T18:16:56.361Z,99301.97
2022-11-18T18:19:24.781Z,99293.69
2022-11-18T18:21:58.932Z,99293.31
2022-11-18T18:24:27.228Z,99289.94
2022-11-18T18:26:55.354Z,99291.25
2022-11-18T18:29:25.209Z,99299.06
2022-11-18T18:31:53.364Z,99306.44
2022-11-18T18:34:22.769Z,99299.38
2022-11-18T18:36:50.965Z,99305.31
2022-11-18T18:39:19.003Z,99304.13
2022-11-18T18:41:49.133Z,99313.03
2022-11-18T18:44:18.899Z,99314.00
2022-11-18T18:46:46.125Z,99313.38
2022-11-18T18:49:15.681Z,99302.91
2022-11-18T18:51:48.904Z,99322.56
2022-11-18T18:54:20.322Z,99328.34
2022-11-18T18:56:48.483Z,99325.88
2022-11-18T18:59:16.485Z,99329.25
2022-11-18T19:01:44.714Z,99329.88
2022-11-18T19:04:14.278Z,99324.69
2022-11-18T19:07:01.107Z,99329.06
2022-11-18T19:09:30.642Z,99325.16
2022-11-18T19:12:15.989Z,99322.94
2022-11-18T19:14:43.950Z,99327.25
2022-11-18T19:17:13.001Z,99322.41
2022-11-18T19:19:59.574Z,99328.53
2022-11-18T19:22:30.155Z,99326.31
2022-11-18T19:24:59.917Z,99338.81
2022-11-18T19:27:28.927Z,99330.13
2022-11-18T19:29:57.019Z,99332.13
2022-11-18T19:32:25.118Z,99341.31
2022-11-18T19:34:53.220Z,99347.06
2022-11-18T19:37:21.231Z,99339.75
2022-11-18T19:39:49.160Z,99346.22
2022-11-18T19:42:18.657Z,99346.91
2022-11-18T19:44:46.598Z,99354.97
2022-11-18T19:47:14.571Z,99357.59
2022-11-18T19:49:42.640Z,99362.75
2022-11-18T19:52:10.632Z,99374.19
2022-11-18T19:54:38.544Z,99372.16
2022-11-18T19:57:06.506Z,99362.88
2022-11-18T19:59:36.031Z,99371.38
2022-11-18T20:02:04.200Z,99356.16
2022-11-18T20:04:32.104Z,99369.69
2022-11-18T20:07:01.092Z,99375.50
2022-11-18T20:09:29.115Z,99370.78
2022-11-18T20:11:57.191Z,99371.16
2022-11-18T20:14:25.423Z,99375.22
2022-11-18T20:16:54.894Z,99386.66
2022-11-18T20:19:23.438Z,99383.88
2022-11-18T20:21:53.023Z,99388.94
2022-11-18T20:24:21.508Z,99389.38
2022-11-18T20:26:50.336Z,99384.31
2022-11-18T20:29:18.850Z,99383.28
2022-11-18T20:31:47.123Z,99390.44
2022-11-18T20:34:16.329Z,99387.03
2022-11-18T20:36:44.582Z,99360.41
2022-11-18T20:39:15.316Z,99391.63
2022-11-18T20:42:04.261Z,99383.50
2022-11-18T20:44:32.248Z,99363.47
2022-11-18T20:47:01.371Z,99377.94
2022-11-18T20:49:31.881Z,99379.00
2022-11-18T20:51:59.695Z,99384.56
2022-11-18T20:54:28.333Z,99392.59
2022-11-18T20:56:56.465Z,99385.16
2022-11-18T20:59:24.679Z,99387.50
2022-11-18T21:01:53.196Z,99385.66
2022-11-18T21:04:21.122Z,99387.28
2022-11-18T21:06:52.626Z,99380.78
2022-11-18T21:09:21.434Z,99384.91
2022-11-18T21:11:50.493Z,99396.81
2022-11-18T21:14:23.332Z,99378.81
2022-11-18T21:16:53.257Z,99401.56
2022-11-18T21:19:21.600Z,99382.31
2022-11-18T21:21:52.582Z,99394.13
2022-11-18T21:24:23.436Z,99395.53
2022-11-18T21:26:54.696Z,99397.66
2022-11-18T21:29:23.762Z,99399.84
2022-11-18T21:31:52.471Z,99399.16
2022-11-18T21:34:21.604Z,99395.03
2022-11-18T21:36:55.144Z,99413.81
2022-11-18T21:39:24.496Z,99412.50
2022-11-18T21:41:56.798Z,99406.94
2022-11-18T21:44:28.345Z,99399.97
2022-11-18T21:46:57.864Z,99419.09
2022-11-18T21:49:26.080Z,99421.56
2022-11-18T21:51:56.914Z,99423.44
2022-11-18T21:54:25.153Z,99426.00
2022-11-18T21:56:54.155Z,99432.31
2022-11-18T21:59:23.676Z,99438.28
2022-11-18T22:01:52.266Z,99447.75
2022-11-18T22:04:34.476Z,99450.44
2022-11-18T22:07:05.256Z,99447.97
2022-11-18T22:09:36.688Z,99452.69
2022-11-18T22:12:07.839Z,99447.50
2022-11-18T22:14:36.363Z,99451.75
2022-11-18T22:17:05.806Z,99452.47
2022-11-18T22:19:33.740Z,99447.03
2022-11-18T22:22:03.440Z,99445.56
2022-11-18T22:24:31.823Z,99450.53
2022-11-18T22:26:59.834Z,99455.94
2022-11-18T22:29:28.177Z,99463.75
2022-11-18T22:31:57.292Z,99463.03
2022-11-18T22:34:25.396Z,99464.78
2022-11-18T22:36:53.300Z,99464.91
2022-11-18T22:39:22.912Z,99477.72
2022-11-18T22:42:08.297Z,99478.06
2022-11-18T22:44:36.312Z,99477.44
2022-11-18T22:47:04.729Z,99478.47
2022-11-18T22:49:32.875Z,99487.69
2022-11-18T22:52:02.009Z,99494.91
2022-11-18T22:54:38.935Z,99488.72
2022-11-18T22:57:07.903Z,99481.66
2022-11-18T22:59:36.407Z,99488.34
2022-11-18T23:02:05.042Z,99496.84
2022-11-18T23:04:33.015Z,99492.00
2022-11-18T23:07:00.840Z,99503.78
2022-11-18T23:09:28.853Z,99507.69
2022-11-18T23:12:15.367Z,99506.94
2022-11-18T23:14:43.233Z,99512.13
2022-11-18T23:17:11.182Z,99510.97
2022-11-18T23:19:41.954Z,99516.81
2022-11-18T23:22:09.902Z,99515.03
2022-11-18T23:24:37.884Z,99526.44
2022-11-18T23:27:07.288Z,99518.53
2022-11-18T23:29:35.331Z,99521.88
2022-11-18T23:32:03.170Z,99518.03
2022-11-18T23:34:31.107Z,99529.22
2022-11-18T23:36:58.947Z,99530.88
2022-11-18T23:39:27.515Z,99528.16
2022-11-18T23:41:55.350Z,99536.16
2022-11-18T23:44:44.524Z,99539.13
2022-11-18T23:47:12.415Z,99538.84
2022-11-18T23:49:40.161Z,99526.22
2022-11-18T23:52:07.987Z,99536.13
2022-11-18T23:54:35.739Z,99540.91
2022-11-18T23:57:05.592Z,99548.59
2022-11-18T23:59:35.036Z,99548.31
